sensor_id;sensor_type;location;lat;lon;timestamp;pressure;altitude;pressure_sealevel;temperature;humidity
42289;BME280;30230;47.520;19.016;2022-07-17T00:00:09;99650.38;;;20.54;36.88
42289;BME280;30230;47.520;19.016;2022-07-17T00:02:09;99659.03;;;20.46;36.75
42289;BME280;30230;47.520;19.016;2022-07-17T00:04:11;99654.63;;;20.45;36.90
42289;BME280;30230;47.520;19.016;2022-07-17T00:06:13;99658.16;;;20.40;37.09
42289;BME280;30230;47.520;19.016;2022-07-17T00:08:13;99656.91;;;20.48;36.80
42289;BME280;30230;47.520;19.016;2022-07-17T00:10:14;99669.13;;;20.40;37.17
42289;BME280;30230;47.520;19.016;2022-07-17T00:12:15;99663.34;;;20.37;37.08
42289;BME280;30230;47.520;19.016;2022-07-17T00:14:15;99666.81;;;20.27;37.48
42289;BME280;30230;47.520;19.016;2022-07-17T00:16:15;99667.50;;;20.17;37.66
42289;BME280;30230;47.520;19.016;2022-07-17T00:18:16;99673.28;;;20.21;37.88
42289;BME280;30230;47.520;19.016;2022-07-17T00:20:17;99672.63;;;20.09;37.83
42289;BME280;30230;47.520;19.016;2022-07-17T00:22:17;99676.78;;;20.11;38.06
42289;BME280;30230;47.520;19.016;2022-07-17T00:24:18;99681.94;;;20.08;37.92
42289;BME280;30230;47.520;19.016;2022-07-17T00:26:21;99670.63;;;20.04;37.90
42289;BME280;30230;47.520;19.016;2022-07-17T00:28:21;99677.84;;;20.10;37.85
42289;BME280;30230;47.520;19.016;2022-07-17T00:30:22;99677.47;;;20.01;38.18
42289;BME280;30230;47.520;19.016;2022-07-17T00:32:22;99678.63;;;20.06;37.96
42289;BME280;30230;47.520;19.016;2022-07-17T00:34:24;99679.06;;;19.97;38.49
42289;BME280;30230;47.520;19.016;2022-07-17T00:36:24;99682.69;;;20.03;38.42
42289;BME280;30230;47.520;19.016;2022-07-17T00:38:25;99683.97;;;19.95;38.46
42289;BME280;30230;47.520;19.016;2022-07-17T00:40:25;99686.72;;;19.95;38.53
42289;BME280;30230;47.520;19.016;2022-07-17T00:42:26;99692.97;;;19.91;38.47
42289;BME280;30230;47.520;19.016;2022-07-17T00:44:27;99686.13;;;19.93;38.10
42289;BME280;30230;47.520;19.016;2022-07-17T00:46:28;99691.13;;;19.96;38.22
42289;BME280;30230;47.520;19.016;2022-07-17T00:48:28;99695.44;;;19.92;38.28
42289;BME280;30230;47.520;19.016;2022-07-17T00:50:37;99694.88;;;19.90;38.63
42289;BME280;30230;47.520;19.016;2022-07-17T00:52:38;99698.94;;;19.88;38.24
42289;BME280;30230;47.520;19.016;2022-07-17T00:54:41;99689.81;;;19.82;38.80
42289;BME280;30230;47.520;19.016;2022-07-17T00:56:42;99688.75;;;19.83;38.75
42289;BME280;30230;47.520;19.016;2022-07-17T00:58:49;99693.47;;;19.88;38.37
42289;BME280;30230;47.520;19.016;2022-07-17T01:00:53;99695.44;;;19.92;38.53
42289;BME280;30230;47.520;19.016;2022-07-17T01:02:54;99696.34;;;19.76;38.77
42289;BME280;30230;47.520;19.016;2022-07-17T01:04:54;99692.84;;;19.81;38.81
42289;BME280;30230;47.520;19.016;2022-07-17T01:06:55;99690.38;;;19.84;38.82
42289;BME280;30230;47.520;19.016;2022-07-17T01:08:55;99693.00;;;19.74;39.03
42289;BME280;30230;47.520;19.016;2022-07-17T01:10:56;99684.06;;;19.62;39.47
42289;BME280;30230;47.520;19.016;2022-07-17T01:12:56;99692.44;;;19.72;39.30
42289;BME280;30230;47.520;19.016;2022-07-17T01:14:57;99690.19;;;19.69;39.57
42289;BME280;30230;47.520;19.016;2022-07-17T01:16:58;99695.50;;;19.59;39.90
42289;BME280;30230;47.520;19.016;2022-07-17T01:18:59;99689.06;;;19.65;39.72
42289;BME280;30230;47.520;19.016;2022-07-17T01:21:05;99701.59;;;19.61;39.74
42289;BME280;30230;47.520;19.016;2022-07-17T01:23:05;99695.50;;;19.59;39.97
42289;BME280;30230;47.520;19.016;2022-07-17T01:25:06;99703.47;;;19.43;40.26
42289;BME280;30230;47.520;19.016;2022-07-17T01:27:07;99708.22;;;19.48;40.20
42289;BME280;30230;47.520;19.016;2022-07-17T01:29:09;99703.44;;;19.38;40.42
42289;BME280;30230;47.520;19.016;2022-07-17T01:31:10;99699.69;;;19.27;40.75
42289;BME280;30230;47.520;19.016;2022-07-17T01:33:10;99697.19;;;19.26;40.97
42289;BME280;30230;47.520;19.016;2022-07-17T01:35:13;99692.06;;;19.30;40.96
42289;BME280;30230;47.520;19.016;2022-07-17T01:37:14;99698.63;;;19.29;40.88
42289;BME280;30230;47.520;19.016;2022-07-17T01:39:14;99691.22;;;19.29;41.24
42289;BME280;30230;47.520;19.016;2022-07-17T01:41:15;99699.53;;;19.17;41.37
42289;BME280;30230;47.520;19.016;2022-07-17T01:43:15;99704.78;;;19.19;41.45
42289;BME280;30230;47.520;19.016;2022-07-17T01:45:17;99702.44;;;19.11;41.86
42289;BME280;30230;47.520;19.016;2022-07-17T01:47:18;99700.88;;;19.15;41.55
42289;BME280;30230;47.520;19.016;2022-07-17T01:49:19;99707.34;;;19.09;42.04
42289;BME280;30230;47.520;19.016;2022-07-17T01:51:19;99707.56;;;19.07;41.68
42289;BME280;30230;47.520;19.016;2022-07-17T01:53:21;99702.91;;;18.91;42.10
42289;BME280;30230;47.520;19.016;2022-07-17T01:55:22;99710.31;;;18.90;42.29
42289;BME280;30230;47.520;19.016;2022-07-17T01:57:22;99706.91;;;18.83;42.34
42289;BME280;30230;47.520;19.016;2022-07-17T01:59:23;99716.19;;;18.82;42.13
42289;BME280;30230;47.520;19.016;2022-07-17T02:01:23;99711.03;;;18.86;42.21
42289;BME280;30230;47.520;19.016;2022-07-17T02:03:23;99718.94;;;18.82;42.54
42289;BME280;30230;47.520;19.016;2022-07-17T02:05:24;99715.59;;;18.80;42.20
42289;BME280;30230;47.520;19.016;2022-07-17T02:07:24;99721.75;;;18.87;41.74
42289;BME280;30230;47.520;19.016;2022-07-17T02:09:25;99721.31;;;18.79;42.29
42289;BME280;30230;47.520;19.016;2022-07-17T02:11:25;99726.78;;;18.79;42.02
42289;BME280;30230;47.520;19.016;2022-07-17T02:13:26;99724.44;;;18.70;41.98
42289;BME280;30230;47.520;19.016;2022-07-17T02:15:26;99726.28;;;18.53;42.33
42289;BME280;30230;47.520;19.016;2022-07-17T02:17:27;99730.19;;;18.57;42.40
42289;BME280;30230;47.520;19.016;2022-07-17T02:19:27;99728.53;;;18.68;42.21
42289;BME280;30230;47.520;19.016;2022-07-17T02:21:28;99741.72;;;18.59;42.38
42289;BME280;30230;47.520;19.016;2022-07-17T02:23:28;99730.25;;;18.45;42.60
42289;BME280;30230;47.520;19.016;2022-07-17T02:25:29;99735.13;;;18.43;42.51
42289;BME280;30230;47.520;19.016;2022-07-17T02:27:31;99741.81;;;18.36;42.82
42289;BME280;30230;47.520;19.016;2022-07-17T02:29:32;99740.03;;;18.41;42.54
42289;BME280;30230;47.520;19.016;2022-07-17T02:31:32;99744.47;;;18.31;42.85
42289;BME280;30230;47.520;19.016;2022-07-17T02:33:33;99745.28;;;18.31;42.54
42289;BME280;30230;47.520;19.016;2022-07-17T02:35:33;99747.41;;;18.29;42.83
42289;BME280;30230;47.520;19.016;2022-07-17T02:37:34;99739.47;;;18.28;42.77
42289;BME280;30230;47.520;19.016;2022-07-17T02:39:34;99749.19;;;18.35;42.45
42289;BME280;30230;47.520;19.016;2022-07-17T02:41:35;99747.88;;;18.38;42.18
42289;BME280;30230;47.520;19.016;2022-07-17T02:43:35;99748.50;;;18.28;42.41
42289;BME280;30230;47.520;19.016;2022-07-17T02:45:36;99755.03;;;18.27;42.48
42289;BME280;30230;47.520;19.016;2022-07-17T02:47:36;99750.19;;;18.17;42.56
42289;BME280;30230;47.520;19.016;2022-07-17T02:49:37;99756.88;;;18.10;42.53
42289;BME280;30230;47.520;19.016;2022-07-17T02:51:37;99757.09;;;18.08;42.41
42289;BME280;30230;47.520;19.016;2022-07-17T02:53:38;99763.88;;;18.06;42.74
42289;BME280;30230;47.520;19.016;2022-07-17T02:55:38;99751.28;;;18.05;42.81
42289;BME280;30230;47.520;19.016;2022-07-17T02:57:39;99755.06;;;18.04;42.70
42289;BME280;30230;47.520;19.016;2022-07-17T02:59:41;99753.31;;;17.98;42.83
42289;BME280;30230;47.520;19.016;2022-07-17T03:01:41;99760.09;;;17.95;43.36
42289;BME280;30230;47.520;19.016;2022-07-17T03:03:42;99761.28;;;17.87;43.40
42289;BME280;30230;47.520;19.016;2022-07-17T03:05:42;99764.50;;;17.84;43.12
42289;BME280;30230;47.520;19.016;2022-07-17T03:07:43;99758.81;;;17.86;43.19
42289;BME280;30230;47.520;19.016;2022-07-17T03:09:44;99763.56;;;17.79;43.36
42289;BME280;30230;47.520;19.016;2022-07-17T03:11:44;99763.44;;;17.74;43.46
42289;BME280;30230;47.520;19.016;2022-07-17T03:13:45;99758.44;;;17.82;43.12
42289;BME280;30230;47.520;19.016;2022-07-17T03:15:45;99754.03;;;17.81;43.15
42289;BME280;30230;47.520;19.016;2022-07-17T03:17:46;99770.31;;;17.88;43.02
42289;BME280;30230;47.520;19.016;2022-07-17T03:19:46;99767.69;;;17.69;42.99
42289;BME280;30230;47.520;19.016;2022-07-17T03:21:46;99773.31;;;17.75;43.12
42289;BME280;30230;47.520;19.016;2022-07-17T03:23:47;99773.75;;;17.71;42.95
42289;BME280;30230;47.520;19.016;2022-07-17T03:25:47;99779.91;;;17.67;43.16
42289;BME280;30230;47.520;19.016;2022-07-17T03:27:48;99779.03;;;17.73;43.06
42289;BME280;30230;47.520;19.016;2022-07-17T03:29:49;99785.25;;;17.62;44.12
42289;BME280;30230;47.520;19.016;2022-07-17T03:31:49;99788.94;;;17.67;43.17
42289;BME280;30230;47.520;19.016;2022-07-17T03:33:50;99783.72;;;17.66;43.29
42289;BME280;30230;47.520;19.016;2022-07-17T03:35:50;99790.38;;;17.58;43.43
42289;BME280;30230;47.520;19.016;2022-07-17T03:37:50;99792.03;;;17.59;43.61
42289;BME280;30230;47.520;19.016;2022-07-17T03:39:51;99793.00;;;17.53;43.66
42289;BME280;30230;47.520;19.016;2022-07-17T03:41:51;99798.09;;;17.50;43.60
42289;BME280;30230;47.520;19.016;2022-07-17T03:43:52;99797.84;;;17.51;44.05
42289;BME280;30230;47.520;19.016;2022-07-17T03:45:52;99796.44;;;17.49;44.28
42289;BME280;30230;47.520;19.016;2022-07-17T03:47:53;99799.28;;;17.54;43.62
42289;BME280;30230;47.520;19.016;2022-07-17T03:49:53;99792.75;;;17.43;44.09
42289;BME280;30230;47.520;19.016;2022-07-17T03:51:53;99796.44;;;17.49;43.72
42289;BME280;30230;47.520;19.016;2022-07-17T03:53:54;99798.53;;;17.47;43.90
42289;BME280;30230;47.520;19.016;2022-07-17T03:55:54;99797.13;;;17.44;44.04
42289;BME280;30230;47.520;19.016;2022-07-17T03:57:55;99793.06;;;17.47;43.83
42289;BME280;30230;47.520;19.016;2022-07-17T03:59:55;99794.41;;;17.44;43.84
42289;BME280;30230;47.520;19.016;2022-07-17T04:01:56;99805.06;;;17.45;44.07
42289;BME280;30230;47.520;19.016;2022-07-17T04:03:56;99803.53;;;17.50;43.92
42289;BME280;30230;47.520;19.016;2022-07-17T04:05:57;99815.28;;;17.50;44.07
42289;BME280;30230;47.520;19.016;2022-07-17T04:07:57;99814.22;;;17.51;44.11
42289;BME280;30230;47.520;19.016;2022-07-17T04:09:59;99813.75;;;17.42;44.18
42289;BME280;30230;47.520;19.016;2022-07-17T04:11:59;99821.47;;;17.57;43.71
42289;BME280;30230;47.520;19.016;2022-07-17T04:14:00;99825.53;;;17.55;43.77
42289;BME280;30230;47.520;19.016;2022-07-17T04:16:00;99824.31;;;17.51;43.89
42289;BME280;30230;47.520;19.016;2022-07-17T04:18:01;99814.81;;;17.41;44.14
42289;BME280;30230;47.520;19.016;2022-07-17T04:20:02;99827.75;;;17.34;44.17
42289;BME280;30230;47.520;19.016;2022-07-17T04:22:03;99828.56;;;17.35;44.22
42289;BME280;30230;47.520;19.016;2022-07-17T04:24:04;99828.31;;;17.25;44.72
42289;BME280;30230;47.520;19.016;2022-07-17T04:26:05;99837.47;;;17.30;44.64
42289;BME280;30230;47.520;19.016;2022-07-17T04:28:08;99833.56;;;17.38;44.14
42289;BME280;30230;47.520;19.016;2022-07-17T04:30:09;99830.72;;;17.33;44.38
42289;BME280;30230;47.520;19.016;2022-07-17T04:32:10;99836.88;;;17.40;44.41
42289;BME280;30230;47.520;19.016;2022-07-17T04:34:10;99837.72;;;17.40;44.52
42289;BME280;30230;47.520;19.016;2022-07-17T04:36:11;99831.81;;;17.43;44.42
42289;BME280;30230;47.520;19.016;2022-07-17T04:38:11;99846.03;;;17.45;44.45
42289;BME280;30230;47.520;19.016;2022-07-17T04:40:12;99838.34;;;17.42;44.70
42289;BME280;30230;47.520;19.016;2022-07-17T04:42:12;99848.56;;;17.47;44.38
42289;BME280;30230;47.520;19.016;2022-07-17T04:44:13;99848.91;;;17.51;44.15
42289;BME280;30230;47.520;19.016;2022-07-17T04:46:13;99847.13;;;17.56;44.06
42289;BME280;30230;47.520;19.016;2022-07-17T04:48:13;99853.56;;;17.62;43.37
42289;BME280;30230;47.520;19.016;2022-07-17T04:50:14;99852.97;;;17.71;43.52
42289;BME280;30230;47.520;19.016;2022-07-17T04:52:14;99850.25;;;17.71;43.80
42289;BME280;30230;47.520;19.016;2022-07-17T04:54:15;99852.31;;;17.76;43.42
42289;BME280;30230;47.520;19.016;2022-07-17T04:56:15;99852.78;;;17.73;43.72
42289;BME280;30230;47.520;19.016;2022-07-17T04:58:16;99858.69;;;17.70;43.74
42289;BME280;30230;47.520;19.016;2022-07-17T05:00:16;99855.66;;;17.78;43.55
42289;BME280;30230;47.520;19.016;2022-07-17T05:02:17;99858.38;;;17.90;43.12
42289;BME280;30230;47.520;19.016;2022-07-17T05:04:17;99858.00;;;17.86;43.35
42289;BME280;30230;47.520;19.016;2022-07-17T05:06:18;99858.13;;;17.91;43.16
42289;BME280;30230;47.520;19.016;2022-07-17T05:08:18;99861.56;;;17.99;43.06
42289;BME280;30230;47.520;19.016;2022-07-17T05:10:19;99860.63;;;18.05;42.77
42289;BME280;30230;47.520;19.016;2022-07-17T05:12:19;99864.53;;;17.97;43.22
42289;BME280;30230;47.520;19.016;2022-07-17T05:14:20;99870.88;;;18.09;42.90
42289;BME280;30230;47.520;19.016;2022-07-17T05:16:20;99871.81;;;18.15;42.55
42289;BME280;30230;47.520;19.016;2022-07-17T05:18:21;99873.94;;;18.13;42.44
42289;BME280;30230;47.520;19.016;2022-07-17T05:20:21;99868.47;;;18.13;42.59
42289;BME280;30230;47.520;19.016;2022-07-17T05:22:21;99875.25;;;18.22;42.54
42289;BME280;30230;47.520;19.016;2022-07-17T05:24:22;99864.78;;;18.19;42.41
42289;BME280;30230;47.520;19.016;2022-07-17T05:26:22;99864.44;;;18.15;42.74
42289;BME280;30230;47.520;19.016;2022-07-17T05:28:23;99875.50;;;18.20;42.54
42289;BME280;30230;47.520;19.016;2022-07-17T05:30:23;99877.63;;;18.30;42.72
42289;BME280;30230;47.520;19.016;2022-07-17T05:32:24;99876.78;;;18.30;42.55
42289;BME280;30230;47.520;19.016;2022-07-17T05:34:24;99880.00;;;18.27;42.62
42289;BME280;30230;47.520;19.016;2022-07-17T05:36:25;99880.34;;;18.18;42.42
42289;BME280;30230;47.520;19.016;2022-07-17T05:38:25;99881.44;;;18.17;42.80
42289;BME280;30230;47.520;19.016;2022-07-17T05:40:26;99886.31;;;18.27;42.84
42289;BME280;30230;47.520;19.016;2022-07-17T05:42:26;99883.78;;;18.37;42.25
42289;BME280;30230;47.520;19.016;2022-07-17T05:44:27;99887.94;;;18.40;41.82
42289;BME280;30230;47.520;19.016;2022-07-17T05:46:27;99883.66;;;18.44;41.95
42289;BME280;30230;47.520;19.016;2022-07-17T05:48:30;99884.03;;;18.47;41.73
42289;BME280;30230;47.520;19.016;2022-07-17T05:50:31;99874.00;;;18.53;41.61
42289;BME280;30230;47.520;19.016;2022-07-17T05:52:32;99878.06;;;18.62;41.28
42289;BME280;30230;47.520;19.016;2022-07-17T05:54:32;99891.25;;;18.77;41.05
42289;BME280;30230;47.520;19.016;2022-07-17T05:56:33;99895.75;;;18.83;41.40
42289;BME280;30230;47.520;19.016;2022-07-17T05:58:33;99888.31;;;18.95;40.25
42289;BME280;30230;47.520;19.016;2022-07-17T06:00:34;99889.16;;;18.96;40.60
42289;BME280;30230;47.520;19.016;2022-07-17T06:02:35;99894.97;;;18.99;40.26
42289;BME280;30230;47.520;19.016;2022-07-17T06:04:35;99889.63;;;19.05;39.31
42289;BME280;30230;47.520;19.016;2022-07-17T06:06:36;99893.00;;;19.23;39.28
42289;BME280;30230;47.520;19.016;2022-07-17T06:08:36;99893.84;;;19.12;39.74
42289;BME280;30230;47.520;19.016;2022-07-17T06:10:37;99894.31;;;19.21;38.94
42289;BME280;30230;47.520;19.016;2022-07-17T06:12:38;99899.78;;;19.21;38.90
42289;BME280;30230;47.520;19.016;2022-07-17T06:14:39;99906.06;;;19.33;39.04
42289;BME280;30230;47.520;19.016;2022-07-17T06:16:39;99897.03;;;19.49;37.43
42289;BME280;30230;47.520;19.016;2022-07-17T06:18:40;99905.84;;;19.51;37.13
42289;BME280;30230;47.520;19.016;2022-07-17T06:20:40;99907.00;;;19.56;36.34
42289;BME280;30230;47.520;19.016;2022-07-17T06:22:41;99900.66;;;19.67;35.34
42289;BME280;30230;47.520;19.016;2022-07-17T06:24:42;99903.38;;;19.67;35.47
42289;BME280;30230;47.520;19.016;2022-07-17T06:26:42;99907.41;;;19.76;35.57
42289;BME280;30230;47.520;19.016;2022-07-17T06:28:43;99911.13;;;19.87;35.81
42289;BME280;30230;47.520;19.016;2022-07-17T06:30:43;99908.81;;;19.95;35.87
42289;BME280;30230;47.520;19.016;2022-07-17T06:32:44;99900.56;;;20.12;36.12
42289;BME280;30230;47.520;19.016;2022-07-17T06:34:44;99904.78;;;20.20;34.19
42289;BME280;30230;47.520;19.016;2022-07-17T06:36:45;99917.28;;;20.27;33.92
42289;BME280;30230;47.520;19.016;2022-07-17T06:38:46;99919.34;;;20.37;33.86
42289;BME280;30230;47.520;19.016;2022-07-17T06:40:46;99917.72;;;20.41;33.70
42289;BME280;30230;47.520;19.016;2022-07-17T06:42:47;99905.94;;;20.58;33.37
42289;BME280;30230;47.520;19.016;2022-07-17T06:44:47;99919.97;;;20.61;32.93
42289;BME280;30230;47.520;19.016;2022-07-17T06:46:48;99923.44;;;20.73;31.79
42289;BME280;30230;47.520;19.016;2022-07-17T06:48:48;99906.44;;;20.54;31.85
42289;BME280;30230;47.520;19.016;2022-07-17T06:50:51;99921.94;;;20.66;32.06
42289;BME280;30230;47.520;19.016;2022-07-17T06:52:52;99927.19;;;20.67;31.68
42289;BME280;30230;47.520;19.016;2022-07-17T06:54:52;99920.00;;;20.83;32.01
42289;BME280;30230;47.520;19.016;2022-07-17T06:56:53;99915.19;;;20.95;31.78
42289;BME280;30230;47.520;19.016;2022-07-17T06:58:54;99930.25;;;20.93;31.23
42289;BME280;30230;47.520;19.016;2022-07-17T07:00:54;99922.41;;;21.01;31.39
42289;BME280;30230;47.520;19.016;2022-07-17T07:02:55;99922.84;;;20.93;31.13
42289;BME280;30230;47.520;19.016;2022-07-17T07:04:55;99920.34;;;21.14;30.71
42289;BME280;30230;47.520;19.016;2022-07-17T07:06:56;99917.78;;;21.29;31.01
42289;BME280;30230;47.520;19.016;2022-07-17T07:08:56;99922.50;;;21.55;31.30
42289;BME280;30230;47.520;19.016;2022-07-17T07:10:57;99886.72;;;21.50;30.93
42289;BME280;30230;47.520;19.016;2022-07-17T07:12:57;99918.38;;;21.58;30.99
42289;BME280;30230;47.520;19.016;2022-07-17T07:14:58;99910.94;;;21.85;30.94
42289;BME280;30230;47.520;19.016;2022-07-17T07:16:58;99911.94;;;22.06;30.56
42289;BME280;30230;47.520;19.016;2022-07-17T07:18:59;99918.16;;;21.92;30.21
42289;BME280;30230;47.520;19.016;2022-07-17T07:20:59;99919.53;;;21.94;30.67
42289;BME280;30230;47.520;19.016;2022-07-17T07:23:00;99916.09;;;22.09;30.85
42289;BME280;30230;47.520;19.016;2022-07-17T07:25:00;99915.19;;;22.35;30.00
42289;BME280;30230;47.520;19.016;2022-07-17T07:27:01;99924.34;;;22.46;30.10
42289;BME280;30230;47.520;19.016;2022-07-17T07:29:01;99929.66;;;22.58;28.36
42289;BME280;30230;47.520;19.016;2022-07-17T07:31:02;99921.19;;;22.70;28.78
42289;BME280;30230;47.520;19.016;2022-07-17T07:33:02;99914.88;;;22.79;28.22
42289;BME280;30230;47.520;19.016;2022-07-17T07:35:04;99927.66;;;22.91;28.50
42289;BME280;30230;47.520;19.016;2022-07-17T07:37:04;99925.16;;;22.89;28.42
42289;BME280;30230;47.520;19.016;2022-07-17T07:39:05;99924.66;;;23.02;27.56
42289;BME280;30230;47.520;19.016;2022-07-17T07:41:06;99927.47;;;23.12;27.03
42289;BME280;30230;47.520;19.016;2022-07-17T07:43:06;99926.94;;;23.26;27.75
42289;BME280;30230;47.520;19.016;2022-07-17T07:45:07;99922.03;;;23.38;26.81
42289;BME280;30230;47.520;19.016;2022-07-17T07:47:08;99922.03;;;23.43;26.80
42289;BME280;30230;47.520;19.016;2022-07-17T07:49:09;99919.00;;;23.39;27.12
42289;BME280;30230;47.520;19.016;2022-07-17T07:51:09;99929.00;;;23.71;27.07
42289;BME280;30230;47.520;19.016;2022-07-17T07:53:11;99924.88;;;23.79;26.09
42289;BME280;30230;47.520;19.016;2022-07-17T07:55:13;99915.50;;;23.90;26.34
42289;BME280;30230;47.520;19.016;2022-07-17T07:57:14;99922.38;;;23.87;26.19
42289;BME280;30230;47.520;19.016;2022-07-17T07:59:14;99929.59;;;23.94;26.07
42289;BME280;30230;47.520;19.016;2022-07-17T08:01:15;99935.94;;;24.09;25.96
42289;BME280;30230;47.520;19.016;2022-07-17T08:03:15;99924.31;;;24.07;25.94
42289;BME280;30230;47.520;19.016;2022-07-17T08:05:15;99928.47;;;24.10;26.16
42289;BME280;30230;47.520;19.016;2022-07-17T08:07:16;99930.13;;;23.90;25.56
42289;BME280;30230;47.520;19.016;2022-07-17T08:09:16;99925.16;;;23.92;25.69
42289;BME280;30230;47.520;19.016;2022-07-17T08:11:17;99923.78;;;24.10;25.61
42289;BME280;30230;47.520;19.016;2022-07-17T08:13:17;99915.50;;;24.15;25.85
42289;BME280;30230;47.520;19.016;2022-07-17T08:15:20;99931.25;;;24.35;25.92
42289;BME280;30230;47.520;19.016;2022-07-17T08:17:20;99924.31;;;24.38;25.85
42289;BME280;30230;47.520;19.016;2022-07-17T08:19:21;99933.16;;;24.55;26.13
42289;BME280;30230;47.520;19.016;2022-07-17T08:21:21;99933.06;;;24.76;25.44
42289;BME280;30230;47.520;19.016;2022-07-17T08:23:22;99928.38;;;24.86;25.47
42289;BME280;30230;47.520;19.016;2022-07-17T08:25:23;99947.91;;;25.00;25.66
42289;BME280;30230;47.520;19.016;2022-07-17T08:27:23;99950.13;;;25.03;25.99
42289;BME280;30230;47.520;19.016;2022-07-17T08:29:24;99941.84;;;24.98;25.70
42289;BME280;30230;47.520;19.016;2022-07-17T08:31:25;99937.97;;;24.99;26.82
42289;BME280;30230;47.520;19.016;2022-07-17T08:33:25;99945.06;;;25.26;25.86
42289;BME280;30230;47.520;19.016;2022-07-17T08:35:26;99949.41;;;25.42;25.24
42289;BME280;30230;47.520;19.016;2022-07-17T08:37:27;99939.94;;;25.48;24.97
42289;BME280;30230;47.520;19.016;2022-07-17T08:39:27;99938.22;;;25.62;24.71
42289;BME280;30230;47.520;19.016;2022-07-17T08:41:29;99936.19;;;25.78;24.42
42289;BME280;30230;47.520;19.016;2022-07-17T08:43:29;99932.22;;;25.89;24.26
42289;BME280;30230;47.520;19.016;2022-07-17T08:45:30;99952.13;;;25.96;24.27
42289;BME280;30230;47.520;19.016;2022-07-17T08:47:31;99943.63;;;25.83;24.59
42289;BME280;30230;47.520;19.016;2022-07-17T08:49:32;99944.97;;;25.90;24.38
42289;BME280;30230;47.520;19.016;2022-07-17T08:51:35;99928.84;;;25.97;23.84
42289;BME280;30230;47.520;19.016;2022-07-17T08:53:35;99941.69;;;25.83;24.43
42289;BME280;30230;47.520;19.016;2022-07-17T08:55:36;99935.00;;;25.89;24.03
42289;BME280;30230;47.520;19.016;2022-07-17T08:57:38;99938.88;;;26.22;24.40
42289;BME280;30230;47.520;19.016;2022-07-17T08:59:39;99945.09;;;26.43;24.25
42289;BME280;30230;47.520;19.016;2022-07-17T09:01:41;99940.97;;;26.36;24.35
42289;BME280;30230;47.520;19.016;2022-07-17T09:03:41;99933.81;;;26.30;25.17
42289;BME280;30230;47.520;19.016;2022-07-17T09:05:52;99924.06;;;26.37;24.98
42289;BME280;30230;47.520;19.016;2022-07-17T09:07:53;99922.78;;;26.59;24.46
42289;BME280;30230;47.520;19.016;2022-07-17T09:09:54;99922.06;;;26.72;24.30
42289;BME280;30230;47.520;19.016;2022-07-17T09:11:54;99925.69;;;26.43;23.50
42289;BME280;30230;47.520;19.016;2022-07-17T09:13:55;99921.66;;;26.60;23.89
42289;BME280;30230;47.520;19.016;2022-07-17T09:15:58;99926.72;;;26.77;24.65
42289;BME280;30230;47.520;19.016;2022-07-17T09:17:59;99929.03;;;26.93;24.39
42289;BME280;30230;47.520;19.016;2022-07-17T09:19:59;99930.59;;;27.23;23.35
42289;BME280;30230;47.520;19.016;2022-07-17T09:22:24;99923.81;;;27.35;22.70
42289;BME280;30230;47.520;19.016;2022-07-17T09:24:24;99921.69;;;27.26;22.75
42289;BME280;30230;47.520;19.016;2022-07-17T09:26:25;99918.47;;;27.19;22.58
42289;BME280;30230;47.520;19.016;2022-07-17T09:28:26;99920.25;;;27.10;22.77
42289;BME280;30230;47.520;19.016;2022-07-17T09:30:27;99924.84;;;27.39;22.59
42289;BME280;30230;47.520;19.016;2022-07-17T09:32:30;99921.56;;;27.37;22.47
42289;BME280;30230;47.520;19.016;2022-07-17T09:34:31;99916.69;;;27.66;22.33
42289;BME280;30230;47.520;19.016;2022-07-17T09:36:31;99916.00;;;27.74;22.22
42289;BME280;30230;47.520;19.016;2022-07-17T09:38:34;99907.41;;;27.76;22.46
42289;BME280;30230;47.520;19.016;2022-07-17T09:40:35;99905.75;;;28.08;22.47
42289;BME280;30230;47.520;19.016;2022-07-17T09:42:55;99905.19;;;28.24;22.23
42289;BME280;30230;47.520;19.016;2022-07-17T09:44:59;99904.88;;;28.26;23.38
42289;BME280;30230;47.520;19.016;2022-07-17T09:47:03;99910.91;;;28.33;21.89
42289;BME280;30230;47.520;19.016;2022-07-17T09:49:05;99912.53;;;28.34;21.52
42289;BME280;30230;47.520;19.016;2022-07-17T09:51:10;99896.91;;;28.52;22.67
42289;BME280;30230;47.520;19.016;2022-07-17T09:53:12;99909.38;;;28.54;21.47
42289;BME280;30230;47.520;19.016;2022-07-17T09:55:13;99903.00;;;28.54;21.30
42289;BME280;30230;47.520;19.016;2022-07-17T09:57:14;99902.06;;;28.72;22.22
42289;BME280;30230;47.520;19.016;2022-07-17T09:59:16;99907.41;;;28.41;21.21
42289;BME280;30230;47.520;19.016;2022-07-17T10:01:18;99902.38;;;28.57;21.01
42289;BME280;30230;47.520;19.016;2022-07-17T10:03:19;99903.50;;;28.56;21.40
42289;BME280;30230;47.520;19.016;2022-07-17T10:05:20;99907.53;;;28.77;20.69
42289;BME280;30230;47.520;19.016;2022-07-17T10:07:20;99907.22;;;28.79;20.89
42289;BME280;30230;47.520;19.016;2022-07-17T10:09:21;99903.72;;;28.73;20.39
42289;BME280;30230;47.520;19.016;2022-07-17T10:11:28;99911.34;;;28.81;20.77
42289;BME280;30230;47.520;19.016;2022-07-17T10:13:30;99909.31;;;29.01;20.89
42289;BME280;30230;47.520;19.016;2022-07-17T10:15:31;99905.47;;;28.83;21.09
42289;BME280;30230;47.520;19.016;2022-07-17T10:17:31;99901.75;;;29.15;21.16
42289;BME280;30230;47.520;19.016;2022-07-17T10:19:32;99905.53;;;29.33;21.30
42289;BME280;30230;47.520;19.016;2022-07-17T10:21:33;99901.06;;;29.46;20.70
42289;BME280;30230;47.520;19.016;2022-07-17T10:23:33;99897.41;;;29.73;20.35
42289;BME280;30230;47.520;19.016;2022-07-17T10:25:33;99903.09;;;29.68;19.96
42289;BME280;30230;47.520;19.016;2022-07-17T10:27:35;99893.94;;;29.67;20.30
42289;BME280;30230;47.520;19.016;2022-07-17T10:29:39;99900.50;;;29.71;19.93
42289;BME280;30230;47.520;19.016;2022-07-17T10:31:50;99896.19;;;29.88;21.16